createdAt,value
2023-10-30T00:03:55.927Z,12.40
2023-10-30T00:08:59.641Z,12.40
2023-10-30T00:14:05.368Z,12.41
2023-10-30T00:19:07.912Z,12.45
2023-10-30T00:24:10.759Z,12.45
2023-10-30T00:29:14.882Z,12.45
2023-10-30T00:34:17.390Z,12.43
2023-10-30T00:39:19.983Z,12.36
2023-10-30T00:44:23.884Z,12.35
2023-10-30T00:49:26.398Z,12.36
2023-10-30T00:54:28.965Z,12.36
2023-10-30T00:59:32.873Z,12.36
2023-10-30T01:04:35.593Z,12.41
2023-10-30T01:09:38.319Z,12.41
2023-10-30T01:14:42.488Z,12.44
2023-10-30T01:19:45.106Z,12.48
2023-10-30T01:24:47.639Z,12.56
2023-10-30T01:29:51.507Z,12.59
2023-10-30T01:34:54.026Z,12.60
2023-10-30T01:39:56.587Z,12.61
2023-10-30T01:45:01.348Z,12.63
2023-10-30T01:50:05.123Z,12.65
2023-10-30T01:55:08.560Z,12.68
2023-10-30T02:00:13.968Z,12.70
2023-10-30T02:05:16.541Z,12.70
2023-10-30T02:10:19.338Z,12.72
2023-10-30T02:15:23.444Z,12.75
2023-10-30T02:20:26.275Z,12.73
2023-10-30T02:25:32.887Z,12.73
2023-10-30T02:30:35.503Z,12.69
2023-10-30T02:35:38.255Z,12.68
2023-10-30T02:40:42.077Z,12.66
2023-10-30T02:45:44.804Z,12.66
2023-10-30T02:50:47.366Z,12.67
2023-10-30T02:55:51.253Z,12.66
2023-10-30T03:00:55.608Z,12.66
2023-10-30T03:05:58.148Z,12.66
2023-10-30T03:11:01.971Z,12.62
2023-10-30T03:16:04.985Z,12.60
2023-10-30T03:21:07.534Z,12.58
2023-10-30T03:26:11.407Z,12.53
2023-10-30T03:31:14.347Z,12.47
2023-10-30T03:36:20.588Z,12.40
2023-10-30T03:41:24.509Z,12.29
2023-10-30T03:46:27.041Z,12.20
2023-10-30T03:51:29.633Z,12.14
2023-10-30T03:56:33.804Z,12.11
2023-10-30T04:01:37.262Z,12.06
2023-10-30T04:06:40.436Z,12.01
2023-10-30T04:11:47.202Z,11.94
2023-10-30T04:16:49.690Z,11.86
2023-10-30T04:21:52.601Z,11.80
2023-10-30T04:26:56.500Z,11.73
2023-10-30T04:31:59.077Z,11.64
2023-10-30T04:37:01.603Z,11.58
2023-10-30T04:42:05.953Z,11.52
2023-10-30T04:47:09.065Z,11.45
2023-10-30T04:52:11.552Z,11.39
2023-10-30T04:57:15.417Z,11.34
2023-10-30T05:02:17.990Z,11.29
2023-10-30T05:07:21.503Z,11.26
2023-10-30T05:12:25.357Z,11.24
2023-10-30T05:17:28.572Z,11.21
2023-10-30T05:22:31.092Z,11.17
2023-10-30T05:27:35.303Z,11.13
2023-10-30T05:32:37.888Z,11.10
2023-10-30T05:37:40.620Z,11.06
2023-10-30T05:42:44.469Z,11.03
2023-10-30T05:47:47.067Z,11.02
2023-10-30T05:52:49.617Z,10.96
2023-10-30T05:57:53.491Z,10.91
2023-10-30T06:02:56.124Z,10.85
2023-10-30T06:07:59.081Z,10.82
2023-10-30T06:13:02.944Z,10.77
2023-10-30T06:18:05.946Z,10.74
2023-10-30T06:23:08.492Z,10.72
2023-10-30T06:28:13.492Z,10.69
2023-10-30T06:33:16.102Z,10.65
2023-10-30T06:38:18.653Z,10.66
2023-10-30T06:43:22.921Z,10.67
2023-10-30T06:48:25.475Z,10.67
2023-10-30T06:53:28.224Z,10.69
2023-10-30T06:58:32.082Z,10.73
2023-10-30T07:03:34.997Z,10.76
2023-10-30T07:08:37.788Z,10.81
2023-10-30T07:13:41.660Z,10.85
2023-10-30T07:18:44.212Z,10.89
2023-10-30T07:23:46.856Z,10.91
2023-10-30T07:28:51.137Z,10.96
2023-10-30T07:33:53.819Z,11.02
2023-10-30T07:38:56.512Z,11.07
2023-10-30T07:44:00.861Z,11.15
2023-10-30T07:49:04.577Z,11.22
2023-10-30T07:54:07.491Z,11.28
2023-10-30T07:59:11.399Z,11.37
2023-10-30T08:04:14.064Z,11.43
2023-10-30T08:09:17.345Z,11.50
2023-10-30T08:14:21.283Z,11.59
2023-10-30T08:19:23.797Z,11.61
2023-10-30T08:24:26.325Z,11.62
2023-10-30T08:29:30.580Z,11.71
2023-10-30T08:34:33.194Z,11.84
2023-10-30T08:39:35.785Z,11.95
2023-10-30T08:44:39.650Z,12.00
2023-10-30T08:49:42.309Z,11.97
2023-10-30T08:54:45.046Z,11.97
2023-10-30T08:59:49.202Z,11.98
2023-10-30T09:04:52.031Z,12.00
2023-10-30T09:09:54.677Z,12.02
2023-10-30T09:14:58.621Z,12.06
2023-10-30T09:20:01.131Z,12.09
2023-10-30T09:25:03.883Z,12.18
2023-10-30T09:30:09.032Z,12.39
2023-10-30T09:35:11.675Z,12.59
2023-10-30T09:40:14.848Z,12.83
2023-10-30T09:45:19.975Z,12.97
2023-10-30T09:50:23.537Z,13.11
2023-10-30T09:55:26.692Z,13.29
2023-10-30T10:00:30.684Z,13.50
2023-10-30T10:05:35.175Z,13.66
2023-10-30T10:10:58.005Z,13.81
2023-10-30T10:16:02.610Z,14.00
2023-10-30T10:21:09.291Z,14.10
2023-10-30T10:26:15.518Z,14.21
2023-10-30T10:31:20.262Z,14.27
2023-10-30T10:36:22.907Z,14.19
2023-10-30T10:41:27.375Z,14.14
2023-10-30T10:46:31.334Z,14.15
2023-10-30T10:51:36.544Z,14.15
2023-10-30T10:56:40.010Z,14.16
2023-10-30T11:01:49.700Z,14.18
2023-10-30T11:06:59.537Z,14.16
2023-10-30T11:12:12.771Z,14.26
2023-10-30T11:17:17.538Z,14.37
2023-10-30T11:22:40.274Z,14.46
2023-10-30T11:27:43.439Z,14.56
2023-10-30T11:32:59.257Z,14.68
2023-10-30T11:38:01.829Z,14.83
2023-10-30T11:43:09.061Z,14.84
2023-10-30T11:48:14.504Z,14.88
2023-10-30T11:53:18.961Z,14.92
2023-10-30T11:58:21.763Z,15.03
2023-10-30T12:03:25.660Z,15.07
2023-10-30T12:08:28.187Z,15.11
2023-10-30T12:13:30.748Z,15.17
2023-10-30T12:18:37.014Z,15.19
2023-10-30T12:23:46.747Z,15.26
2023-10-30T12:28:49.861Z,15.32
2023-10-30T12:39:21.350Z,15.35
2023-10-30T12:44:25.761Z,15.44
2023-10-30T12:49:28.336Z,15.49
2023-10-30T12:54:32.346Z,15.46
2023-10-30T12:59:34.850Z,15.52
2023-10-30T13:04:37.441Z,15.52
2023-10-30T13:09:41.442Z,15.58
2023-10-30T13:14:44.022Z,15.63
2023-10-30T13:19:46.629Z,15.74
2023-10-30T13:24:51.196Z,15.80
2023-10-30T13:29:54.040Z,15.87
2023-10-30T13:34:57.736Z,15.94
2023-10-30T13:40:01.595Z,16.05
2023-10-30T13:45:04.399Z,16.09
2023-10-30T13:50:07.573Z,16.14
2023-10-30T13:55:11.581Z,16.13
2023-10-30T14:00:15.048Z,16.07
2023-10-30T14:05:17.609Z,16.04
2023-10-30T14:10:21.448Z,15.93
2023-10-30T14:15:24.001Z,15.87
2023-10-30T14:20:26.629Z,15.76
2023-10-30T14:25:30.466Z,15.64
2023-10-30T14:30:33.029Z,15.53
2023-10-30T14:35:35.543Z,15.45
2023-10-30T14:40:39.355Z,15.39
2023-10-30T14:45:42.096Z,15.34
2023-10-30T14:50:44.774Z,15.22
2023-10-30T14:55:48.624Z,15.12
2023-10-30T15:00:51.289Z,15.01
2023-10-30T15:05:54.927Z,14.89
2023-10-30T15:10:58.759Z,14.80
2023-10-30T15:16:01.768Z,14.71
2023-10-30T15:21:04.932Z,14.58
2023-10-30T15:26:09.407Z,14.45
2023-10-30T15:31:13.548Z,14.27
2023-10-30T15:36:16.075Z,14.15
2023-10-30T15:41:20.147Z,14.09
2023-10-30T15:46:22.730Z,14.03
2023-10-30T15:51:25.611Z,13.90
2023-10-30T16:01:36.939Z,13.70
2023-10-30T16:06:40.454Z,13.65
2023-10-30T16:21:56.332Z,13.38
2023-10-30T16:27:00.197Z,13.26
2023-10-30T16:32:02.808Z,13.15
2023-10-30T16:37:05.580Z,13.04
2023-10-30T16:42:09.464Z,12.98
2023-10-30T16:47:11.999Z,12.90
2023-10-30T16:52:14.791Z,12.84
2023-10-30T16:57:18.630Z,12.78
2023-10-30T17:02:21.154Z,12.70
2023-10-30T17:07:24.014Z,12.68
2023-10-30T17:12:27.853Z,12.65
2023-10-30T17:17:30.389Z,12.59
2023-10-30T17:22:33.014Z,12.54
2023-10-30T17:27:36.850Z,12.48
2023-10-30T17:32:39.413Z,12.40
2023-10-30T17:37:42.271Z,12.34
2023-10-30T17:42:46.124Z,12.31
2023-10-30T17:47:48.648Z,12.27
2023-10-30T17:52:51.257Z,12.24
2023-10-30T17:57:55.195Z,12.21
2023-10-30T18:02:57.831Z,12.18
2023-10-30T18:08:01.351Z,12.15
2023-10-30T18:13:05.233Z,12.14
2023-10-30T18:18:07.768Z,12.10
2023-10-30T18:23:10.369Z,12.06
2023-10-30T18:28:16.552Z,12.06
2023-10-30T18:33:19.197Z,12.05
2023-10-30T18:38:21.867Z,12.06
2023-10-30T18:43:25.990Z,12.02
2023-10-30T18:48:29.464Z,12.01
2023-10-30T18:53:32.009Z,12.00
2023-10-30T18:58:36.474Z,12.01
2023-10-30T19:03:39.021Z,11.98
2023-10-30T19:08:41.561Z,11.94
2023-10-30T19:13:45.445Z,11.93
2023-10-30T19:18:48.057Z,11.92
2023-10-30T19:23:50.614Z,11.88
2023-10-30T19:28:54.521Z,11.83
2023-10-30T19:33:57.054Z,11.78
2023-10-30T19:38:59.658Z,11.74
2023-10-30T19:44:03.907Z,11.73
2023-10-30T19:49:06.476Z,11.72
2023-10-30T19:54:09.082Z,11.72
2023-10-30T19:59:12.926Z,11.71
2023-10-30T20:04:15.430Z,11.74
2023-10-30T20:09:18.316Z,11.73
2023-10-30T20:14:22.152Z,11.75
2023-10-30T20:19:24.684Z,11.76
2023-10-30T20:24:27.337Z,11.77
2023-10-30T20:29:32.933Z,11.79
2023-10-30T20:34:35.483Z,11.81
2023-10-30T20:39:38.003Z,11.84
2023-10-30T20:44:41.870Z,11.83
2023-10-30T20:49:44.462Z,11.83
2023-10-30T20:54:46.982Z,11.84
2023-10-30T20:59:51.761Z,11.85
2023-10-30T21:04:56.756Z,11.85
2023-10-30T21:10:03.216Z,11.90
2023-10-30T21:15:09.165Z,11.96
2023-10-30T21:20:12.390Z,12.03
2023-10-30T21:25:15.130Z,12.05
2023-10-30T21:30:19.019Z,12.07
2023-10-30T21:35:21.777Z,12.09
2023-10-30T21:40:24.330Z,12.05
2023-10-30T21:45:28.176Z,12.01
2023-10-30T21:50:30.914Z,11.98
2023-10-30T21:55:33.568Z,11.99
2023-10-30T22:00:38.195Z,12.01
2023-10-30T22:05:40.804Z,12.01
2023-10-30T22:10:43.356Z,12.04
2023-10-30T22:15:47.414Z,12.07
2023-10-30T22:20:49.930Z,12.06
2023-10-30T22:25:52.556Z,12.04
2023-10-30T22:30:56.451Z,11.99
2023-10-30T22:36:00.710Z,11.87
2023-10-30T22:41:03.359Z,11.73
2023-10-30T22:46:07.403Z,11.60
2023-10-30T22:51:09.979Z,11.54
2023-10-30T22:56:12.516Z,11.51
2023-10-30T23:01:16.374Z,11.46
2023-10-30T23:06:18.928Z,11.41
2023-10-30T23:11:21.468Z,11.37
2023-10-30T23:16:25.358Z,11.36
2023-10-30T23:21:27.901Z,11.33
2023-10-30T23:26:31.975Z,11.30
2023-10-30T23:31:36.143Z,11.33
2023-10-30T23:36:38.981Z,11.38
2023-10-30T23:41:41.989Z,11.34
2023-10-30T23:46:46.426Z,11.33
2023-10-30T23:51:49.038Z,11.36
2023-10-30T23:56:51.546Z,11.31
